sensor_id;sensor_type;location;lat;lon;timestamp;P1;durP1;ratioP1;P2;durP2;ratioP2
25359;SDS011;13311;51.386;0.016;2022-09-28T00:00:13;5.63;;;1.67;;
25359;SDS011;13311;51.386;0.016;2022-09-28T00:05:13;8.88;;;2.28;;
25359;SDS011;13311;51.386;0.016;2022-09-28T00:10:17;10.88;;;2.28;;
25359;SDS011;13311;51.386;0.016;2022-09-28T00:15:21;7.22;;;2.15;;
25359;SDS011;13311;51.386;0.016;2022-09-28T00:20:24;9.82;;;2.45;;
25359;SDS011;13311;51.386;0.016;2022-09-28T00:25:26;6.25;;;2.40;;
25359;SDS011;13311;51.386;0.016;2022-09-28T00:30:27;11.23;;;2.72;;
25359;SDS011;13311;51.386;0.016;2022-09-28T00:35:27;8.18;;;2.50;;
25359;SDS011;13311;51.386;0.016;2022-09-28T00:40:28;5.80;;;2.60;;
25359;SDS011;13311;51.386;0.016;2022-09-28T00:45:29;5.53;;;1.90;;
25359;SDS011;13311;51.386;0.016;2022-09-28T00:50:31;9.25;;;2.15;;
25359;SDS011;13311;51.386;0.016;2022-09-28T00:55:39;8.52;;;2.20;;
25359;SDS011;13311;51.386;0.016;2022-09-28T01:00:45;11.02;;;2.65;;
25359;SDS011;13311;51.386;0.016;2022-09-28T01:05:47;6.00;;;1.95;;
25359;SDS011;13311;51.386;0.016;2022-09-28T01:10:50;8.98;;;1.92;;
25359;SDS011;13311;51.386;0.016;2022-09-28T01:21:04;9.40;;;2.25;;
25359;SDS011;13311;51.386;0.016;2022-09-28T01:31:33;8.38;;;1.80;;
25359;SDS011;13311;51.386;0.016;2022-09-28T01:36:50;8.13;;;1.50;;
25359;SDS011;13311;51.386;0.016;2022-09-28T01:41:56;7.10;;;2.42;;
25359;SDS011;13311;51.386;0.016;2022-09-28T01:47:08;12.68;;;2.50;;
25359;SDS011;13311;51.386;0.016;2022-09-28T02:02:21;8.32;;;1.67;;
25359;SDS011;13311;51.386;0.016;2022-09-28T02:12:45;6.63;;;1.67;;
25359;SDS011;13311;51.386;0.016;2022-09-28T02:17:54;6.28;;;1.88;;
25359;SDS011;13311;51.386;0.016;2022-09-28T02:22:55;6.50;;;2.30;;
25359;SDS011;13311;51.386;0.016;2022-09-28T02:27:59;6.00;;;2.00;;
25359;SDS011;13311;51.386;0.016;2022-09-28T02:33:08;5.68;;;2.22;;
25359;SDS011;13311;51.386;0.016;2022-09-28T02:38:11;12.07;;;2.67;;
25359;SDS011;13311;51.386;0.016;2022-09-28T02:54:51;11.00;;;2.60;;
25359;SDS011;13311;51.386;0.016;2022-09-28T03:00:20;5.95;;;2.25;;
25359;SDS011;13311;51.386;0.016;2022-09-28T03:11:11;9.13;;;2.03;;
25359;SDS011;13311;51.386;0.016;2022-09-28T03:16:21;6.07;;;2.15;;
25359;SDS011;13311;51.386;0.016;2022-09-28T03:21:22;10.18;;;2.42;;
25359;SDS011;13311;51.386;0.016;2022-09-28T03:26:23;10.63;;;2.13;;
25359;SDS011;13311;51.386;0.016;2022-09-28T03:31:23;10.45;;;2.33;;
25359;SDS011;13311;51.386;0.016;2022-09-28T03:36:24;6.95;;;1.95;;
25359;SDS011;13311;51.386;0.016;2022-09-28T03:41:25;5.68;;;2.20;;
25359;SDS011;13311;51.386;0.016;2022-09-28T03:46:29;8.95;;;2.00;;
25359;SDS011;13311;51.386;0.016;2022-09-28T03:51:30;12.05;;;2.55;;
25359;SDS011;13311;51.386;0.016;2022-09-28T03:56:30;11.85;;;2.53;;
25359;SDS011;13311;51.386;0.016;2022-09-28T04:01:32;6.35;;;2.30;;
25359;SDS011;13311;51.386;0.016;2022-09-28T04:06:32;7.07;;;2.33;;
25359;SDS011;13311;51.386;0.016;2022-09-28T04:11:33;8.63;;;2.38;;
25359;SDS011;13311;51.386;0.016;2022-09-28T04:16:34;9.13;;;2.55;;
25359;SDS011;13311;51.386;0.016;2022-09-28T04:21:35;11.02;;;2.70;;
25359;SDS011;13311;51.386;0.016;2022-09-28T04:26:37;9.10;;;2.38;;
25359;SDS011;13311;51.386;0.016;2022-09-28T04:31:47;9.25;;;2.45;;
25359;SDS011;13311;51.386;0.016;2022-09-28T04:36:50;11.88;;;2.75;;
25359;SDS011;13311;51.386;0.016;2022-09-28T04:41:50;11.60;;;2.42;;
25359;SDS011;13311;51.386;0.016;2022-09-28T04:46:53;6.07;;;2.08;;
25359;SDS011;13311;51.386;0.016;2022-09-28T04:51:55;13.82;;;2.03;;
25359;SDS011;13311;51.386;0.016;2022-09-28T04:56:56;9.73;;;2.50;;
25359;SDS011;13311;51.386;0.016;2022-09-28T05:01:57;4.65;;;2.28;;
25359;SDS011;13311;51.386;0.016;2022-09-28T05:06:58;8.57;;;2.70;;
25359;SDS011;13311;51.386;0.016;2022-09-28T05:11:59;12.27;;;2.50;;
25359;SDS011;13311;51.386;0.016;2022-09-28T05:17:00;6.00;;;2.53;;
25359;SDS011;13311;51.386;0.016;2022-09-28T05:22:01;10.93;;;3.05;;
25359;SDS011;13311;51.386;0.016;2022-09-28T05:27:03;9.45;;;3.92;;
25359;SDS011;13311;51.386;0.016;2022-09-28T05:32:04;11.25;;;2.80;;
25359;SDS011;13311;51.386;0.016;2022-09-28T05:37:05;7.13;;;2.63;;
25359;SDS011;13311;51.386;0.016;2022-09-28T05:42:05;10.80;;;2.50;;
25359;SDS011;13311;51.386;0.016;2022-09-28T05:47:06;12.98;;;3.10;;
25359;SDS011;13311;51.386;0.016;2022-09-28T05:52:07;7.88;;;2.85;;
25359;SDS011;13311;51.386;0.016;2022-09-28T05:57:08;15.50;;;3.22;;
25359;SDS011;13311;51.386;0.016;2022-09-28T06:02:09;6.97;;;3.20;;
25359;SDS011;13311;51.386;0.016;2022-09-28T06:07:10;10.75;;;3.55;;
25359;SDS011;13311;51.386;0.016;2022-09-28T06:12:11;11.65;;;2.83;;
25359;SDS011;13311;51.386;0.016;2022-09-28T06:17:12;11.13;;;3.97;;
25359;SDS011;13311;51.386;0.016;2022-09-28T06:22:13;10.68;;;3.60;;
25359;SDS011;13311;51.386;0.016;2022-09-28T06:27:14;9.32;;;2.92;;
25359;SDS011;13311;51.386;0.016;2022-09-28T06:32:14;6.55;;;3.22;;
25359;SDS011;13311;51.386;0.016;2022-09-28T06:37:15;11.15;;;2.90;;
25359;SDS011;13311;51.386;0.016;2022-09-28T06:42:16;9.60;;;2.90;;
25359;SDS011;13311;51.386;0.016;2022-09-28T06:47:18;9.75;;;3.00;;
25359;SDS011;13311;51.386;0.016;2022-09-28T06:52:18;12.75;;;3.50;;
25359;SDS011;13311;51.386;0.016;2022-09-28T06:57:20;11.25;;;2.63;;
25359;SDS011;13311;51.386;0.016;2022-09-28T07:02:20;8.85;;;2.67;;
25359;SDS011;13311;51.386;0.016;2022-09-28T07:07:22;7.55;;;2.88;;
25359;SDS011;13311;51.386;0.016;2022-09-28T07:12:22;10.07;;;3.40;;
25359;SDS011;13311;51.386;0.016;2022-09-28T07:17:24;7.80;;;3.22;;
25359;SDS011;13311;51.386;0.016;2022-09-28T07:22:25;11.93;;;3.60;;
25359;SDS011;13311;51.386;0.016;2022-09-28T07:27:26;14.05;;;3.70;;
25359;SDS011;13311;51.386;0.016;2022-09-28T07:32:27;6.88;;;2.88;;
25359;SDS011;13311;51.386;0.016;2022-09-28T07:37:28;9.23;;;3.35;;
25359;SDS011;13311;51.386;0.016;2022-09-28T07:42:28;7.00;;;2.70;;
25359;SDS011;13311;51.386;0.016;2022-09-28T07:47:30;8.02;;;3.75;;
25359;SDS011;13311;51.386;0.016;2022-09-28T07:52:30;9.77;;;2.90;;
25359;SDS011;13311;51.386;0.016;2022-09-28T07:57:34;4.47;;;2.90;;
25359;SDS011;13311;51.386;0.016;2022-09-28T08:02:35;7.25;;;3.17;;
25359;SDS011;13311;51.386;0.016;2022-09-28T08:07:36;8.75;;;2.95;;
25359;SDS011;13311;51.386;0.016;2022-09-28T08:12:37;6.18;;;3.17;;
25359;SDS011;13311;51.386;0.016;2022-09-28T08:17:39;8.93;;;3.15;;
25359;SDS011;13311;51.386;0.016;2022-09-28T08:22:46;9.82;;;2.75;;
25359;SDS011;13311;51.386;0.016;2022-09-28T08:27:47;9.95;;;3.92;;
25359;SDS011;13311;51.386;0.016;2022-09-28T08:32:48;6.00;;;2.30;;
25359;SDS011;13311;51.386;0.016;2022-09-28T08:37:49;6.45;;;2.47;;
25359;SDS011;13311;51.386;0.016;2022-09-28T08:42:56;6.93;;;2.45;;
25359;SDS011;13311;51.386;0.016;2022-09-28T08:48:02;5.63;;;2.55;;
25359;SDS011;13311;51.386;0.016;2022-09-28T08:53:39;5.45;;;2.95;;
25359;SDS011;13311;51.386;0.016;2022-09-28T08:58:50;7.80;;;2.83;;
25359;SDS011;13311;51.386;0.016;2022-09-28T09:03:59;12.48;;;3.03;;
25359;SDS011;13311;51.386;0.016;2022-09-28T09:15:19;8.48;;;3.33;;
25359;SDS011;13311;51.386;0.016;2022-09-28T09:20:46;5.55;;;2.40;;
25359;SDS011;13311;51.386;0.016;2022-09-28T09:26:01;6.30;;;2.42;;
25359;SDS011;13311;51.386;0.016;2022-09-28T09:47:42;8.15;;;3.05;;
25359;SDS011;13311;51.386;0.016;2022-09-28T09:52:53;4.35;;;2.38;;
25359;SDS011;13311;51.386;0.016;2022-09-28T09:58:12;5.82;;;2.55;;
25359;SDS011;13311;51.386;0.016;2022-09-28T10:03:43;7.95;;;3.35;;
25359;SDS011;13311;51.386;0.016;2022-09-28T10:08:47;3.67;;;1.60;;
25359;SDS011;13311;51.386;0.016;2022-09-28T10:14:15;7.25;;;2.05;;
25359;SDS011;13311;51.386;0.016;2022-09-28T10:19:31;4.95;;;1.40;;
25359;SDS011;13311;51.386;0.016;2022-09-28T10:24:34;5.60;;;1.10;;
25359;SDS011;13311;51.386;0.016;2022-09-28T10:29:50;5.57;;;1.08;;
25359;SDS011;13311;51.386;0.016;2022-09-28T10:35:10;3.03;;;1.48;;
25359;SDS011;13311;51.386;0.016;2022-09-28T10:51:11;3.25;;;1.00;;
25359;SDS011;13311;51.386;0.016;2022-09-28T10:56:19;1.25;;;0.70;;
25359;SDS011;13311;51.386;0.016;2022-09-28T11:01:23;2.47;;;0.88;;
25359;SDS011;13311;51.386;0.016;2022-09-28T11:06:31;1.20;;;0.65;;
25359;SDS011;13311;51.386;0.016;2022-09-28T11:11:40;3.00;;;1.10;;
25359;SDS011;13311;51.386;0.016;2022-09-28T11:16:41;5.28;;;1.25;;
25359;SDS011;13311;51.386;0.016;2022-09-28T11:21:43;1.35;;;0.75;;
25359;SDS011;13311;51.386;0.016;2022-09-28T11:26:51;2.33;;;0.80;;
25359;SDS011;13311;51.386;0.016;2022-09-28T11:31:59;5.28;;;1.33;;
25359;SDS011;13311;51.386;0.016;2022-09-28T11:37:25;2.40;;;0.90;;
25359;SDS011;13311;51.386;0.016;2022-09-28T11:42:33;2.50;;;0.45;;
25359;SDS011;13311;51.386;0.016;2022-09-28T11:47:57;3.40;;;1.00;;
25359;SDS011;13311;51.386;0.016;2022-09-28T12:03:44;1.75;;;0.80;;
25359;SDS011;13311;51.386;0.016;2022-09-28T12:14:59;2.58;;;0.90;;
25359;SDS011;13311;51.386;0.016;2022-09-28T12:20:13;1.25;;;0.65;;
25359;SDS011;13311;51.386;0.016;2022-09-28T12:25:21;2.30;;;0.50;;
25359;SDS011;13311;51.386;0.016;2022-09-28T12:30:23;1.95;;;0.77;;
25359;SDS011;13311;51.386;0.016;2022-09-28T13:07:26;2.45;;;0.90;;
25359;SDS011;13311;51.386;0.016;2022-09-28T13:23:41;1.73;;;0.70;;
25359;SDS011;13311;51.386;0.016;2022-09-28T13:28:44;5.37;;;1.23;;
25359;SDS011;13311;51.386;0.016;2022-09-28T13:33:49;1.27;;;0.68;;
25359;SDS011;13311;51.386;0.016;2022-09-28T13:38:52;2.47;;;1.13;;
25359;SDS011;13311;51.386;0.016;2022-09-28T13:54:53;1.13;;;0.60;;
25359;SDS011;13311;51.386;0.016;2022-09-28T14:00:42;1.27;;;0.70;;
25359;SDS011;13311;51.386;0.016;2022-09-28T14:16:36;0.93;;;0.52;;
25359;SDS011;13311;51.386;0.016;2022-09-28T14:32:21;2.47;;;0.88;;
25359;SDS011;13311;51.386;0.016;2022-09-28T14:37:31;1.25;;;0.55;;
25359;SDS011;13311;51.386;0.016;2022-09-28T14:48:40;1.38;;;0.80;;
25359;SDS011;13311;51.386;0.016;2022-09-28T14:53:43;2.28;;;0.70;;
25359;SDS011;13311;51.386;0.016;2022-09-28T14:58:46;1.33;;;0.50;;
25359;SDS011;13311;51.386;0.016;2022-09-28T15:03:55;2.30;;;0.80;;
25359;SDS011;13311;51.386;0.016;2022-09-28T15:09:03;1.45;;;0.70;;
25359;SDS011;13311;51.386;0.016;2022-09-28T15:25:13;1.63;;;0.70;;
25359;SDS011;13311;51.386;0.016;2022-09-28T15:30:20;2.45;;;0.85;;
25359;SDS011;13311;51.386;0.016;2022-09-28T15:35:25;3.05;;;0.98;;
25359;SDS011;13311;51.386;0.016;2022-09-28T15:40:36;2.53;;;0.77;;
25359;SDS011;13311;51.386;0.016;2022-09-28T15:45:38;2.28;;;0.70;;
25359;SDS011;13311;51.386;0.016;2022-09-28T15:50:39;2.63;;;1.20;;
25359;SDS011;13311;51.386;0.016;2022-09-28T15:56:09;2.85;;;1.00;;
25359;SDS011;13311;51.386;0.016;2022-09-28T16:06:20;2.78;;;1.00;;
25359;SDS011;13311;51.386;0.016;2022-09-28T16:16:28;3.15;;;1.10;;
25359;SDS011;13311;51.386;0.016;2022-09-28T16:21:38;2.25;;;1.73;;
25359;SDS011;13311;51.386;0.016;2022-09-28T16:26:44;3.33;;;2.85;;
25359;SDS011;13311;51.386;0.016;2022-09-28T16:31:46;9.05;;;7.03;;
25359;SDS011;13311;51.386;0.016;2022-09-28T16:36:51;5.47;;;3.35;;
25359;SDS011;13311;51.386;0.016;2022-09-28T16:41:53;5.53;;;2.38;;
25359;SDS011;13311;51.386;0.016;2022-09-28T16:47:00;4.32;;;1.30;;
25359;SDS011;13311;51.386;0.016;2022-09-28T16:52:07;8.27;;;4.90;;
25359;SDS011;13311;51.386;0.016;2022-09-28T16:57:12;2.63;;;0.93;;
25359;SDS011;13311;51.386;0.016;2022-09-28T17:02:16;3.78;;;1.25;;
25359;SDS011;13311;51.386;0.016;2022-09-28T17:07:17;3.60;;;2.22;;
25359;SDS011;13311;51.386;0.016;2022-09-28T17:12:20;2.78;;;2.00;;
25359;SDS011;13311;51.386;0.016;2022-09-28T17:17:29;2.90;;;1.33;;
25359;SDS011;13311;51.386;0.016;2022-09-28T17:22:33;2.75;;;0.90;;
25359;SDS011;13311;51.386;0.016;2022-09-28T17:27:36;1.80;;;0.95;;
25359;SDS011;13311;51.386;0.016;2022-09-28T17:32:40;3.92;;;1.10;;
25359;SDS011;13311;51.386;0.016;2022-09-28T17:37:47;1.60;;;1.10;;
25359;SDS011;13311;51.386;0.016;2022-09-28T17:42:47;6.70;;;3.40;;
25359;SDS011;13311;51.386;0.016;2022-09-28T17:47:48;2.20;;;1.70;;
25359;SDS011;13311;51.386;0.016;2022-09-28T17:52:50;2.30;;;1.30;;
25359;SDS011;13311;51.386;0.016;2022-09-28T17:57:51;2.80;;;1.38;;
25359;SDS011;13311;51.386;0.016;2022-09-28T18:02:53;2.90;;;1.40;;
25359;SDS011;13311;51.386;0.016;2022-09-28T18:07:55;4.07;;;1.60;;
25359;SDS011;13311;51.386;0.016;2022-09-28T18:12:58;6.47;;;2.10;;
25359;SDS011;13311;51.386;0.016;2022-09-28T18:17:59;2.03;;;1.60;;
25359;SDS011;13311;51.386;0.016;2022-09-28T18:23:01;2.95;;;1.67;;
25359;SDS011;13311;51.386;0.016;2022-09-28T18:28:02;6.47;;;3.25;;
25359;SDS011;13311;51.386;0.016;2022-09-28T18:33:03;5.70;;;3.40;;
25359;SDS011;13311;51.386;0.016;2022-09-28T18:38:05;6.45;;;3.50;;
25359;SDS011;13311;51.386;0.016;2022-09-28T18:43:06;9.48;;;3.75;;
25359;SDS011;13311;51.386;0.016;2022-09-28T18:48:07;6.63;;;3.30;;
25359;SDS011;13311;51.386;0.016;2022-09-28T18:53:08;5.35;;;3.30;;
25359;SDS011;13311;51.386;0.016;2022-09-28T18:58:12;7.38;;;3.80;;
25359;SDS011;13311;51.386;0.016;2022-09-28T19:03:13;7.20;;;4.45;;
25359;SDS011;13311;51.386;0.016;2022-09-28T19:08:14;10.75;;;4.75;;
25359;SDS011;13311;51.386;0.016;2022-09-28T19:13:14;5.28;;;3.58;;
25359;SDS011;13311;51.386;0.016;2022-09-28T19:18:15;6.38;;;3.53;;
25359;SDS011;13311;51.386;0.016;2022-09-28T19:23:16;9.77;;;3.85;;
25359;SDS011;13311;51.386;0.016;2022-09-28T19:28:17;9.55;;;4.15;;
25359;SDS011;13311;51.386;0.016;2022-09-28T19:33:18;10.25;;;4.15;;
25359;SDS011;13311;51.386;0.016;2022-09-28T19:38:19;11.55;;;4.20;;
25359;SDS011;13311;51.386;0.016;2022-09-28T19:43:20;7.10;;;3.60;;
25359;SDS011;13311;51.386;0.016;2022-09-28T19:48:25;6.03;;;3.38;;
25359;SDS011;13311;51.386;0.016;2022-09-28T19:53:28;6.30;;;3.67;;
25359;SDS011;13311;51.386;0.016;2022-09-28T19:58:34;9.63;;;4.00;;
25359;SDS011;13311;51.386;0.016;2022-09-28T20:03:36;7.93;;;3.80;;
25359;SDS011;13311;51.386;0.016;2022-09-28T20:08:37;7.22;;;3.47;;
25359;SDS011;13311;51.386;0.016;2022-09-28T20:13:38;9.60;;;4.00;;
25359;SDS011;13311;51.386;0.016;2022-09-28T20:18:40;8.82;;;3.60;;
25359;SDS011;13311;51.386;0.016;2022-09-28T20:23:43;7.93;;;3.20;;
25359;SDS011;13311;51.386;0.016;2022-09-28T20:28:45;8.98;;;3.72;;
25359;SDS011;13311;51.386;0.016;2022-09-28T20:33:46;6.82;;;4.40;;
25359;SDS011;13311;51.386;0.016;2022-09-28T20:38:51;5.07;;;3.80;;
25359;SDS011;13311;51.386;0.016;2022-09-28T20:43:53;7.78;;;3.85;;
25359;SDS011;13311;51.386;0.016;2022-09-28T20:48:55;8.77;;;3.53;;
25359;SDS011;13311;51.386;0.016;2022-09-28T20:53:58;8.45;;;3.80;;
25359;SDS011;13311;51.386;0.016;2022-09-28T20:59:02;7.35;;;3.58;;
25359;SDS011;13311;51.386;0.016;2022-09-28T21:04:05;6.82;;;3.30;;
25359;SDS011;13311;51.386;0.016;2022-09-28T21:09:08;4.85;;;3.33;;
25359;SDS011;13311;51.386;0.016;2022-09-28T21:14:10;6.03;;;3.55;;
25359;SDS011;13311;51.386;0.016;2022-09-28T21:19:10;6.72;;;3.20;;
25359;SDS011;13311;51.386;0.016;2022-09-28T21:24:11;8.77;;;3.80;;
25359;SDS011;13311;51.386;0.016;2022-09-28T21:29:13;8.05;;;4.15;;
25359;SDS011;13311;51.386;0.016;2022-09-28T21:34:15;5.90;;;3.78;;
25359;SDS011;13311;51.386;0.016;2022-09-28T21:39:18;5.78;;;4.10;;
25359;SDS011;13311;51.386;0.016;2022-09-28T21:44:19;7.55;;;4.05;;
25359;SDS011;13311;51.386;0.016;2022-09-28T21:49:21;8.82;;;4.22;;
25359;SDS011;13311;51.386;0.016;2022-09-28T21:54:21;8.20;;;4.18;;
25359;SDS011;13311;51.386;0.016;2022-09-28T21:59:22;6.90;;;3.80;;
25359;SDS011;13311;51.386;0.016;2022-09-28T22:04:24;7.28;;;4.30;;
25359;SDS011;13311;51.386;0.016;2022-09-28T22:09:24;8.20;;;4.32;;
25359;SDS011;13311;51.386;0.016;2022-09-28T22:14:25;6.80;;;3.60;;
25359;SDS011;13311;51.386;0.016;2022-09-28T22:19:26;5.53;;;3.80;;
25359;SDS011;13311;51.386;0.016;2022-09-28T22:24:27;4.13;;;3.00;;
25359;SDS011;13311;51.386;0.016;2022-09-28T22:29:28;4.25;;;3.45;;
25359;SDS011;13311;51.386;0.016;2022-09-28T22:34:28;8.45;;;3.75;;
25359;SDS011;13311;51.386;0.016;2022-09-28T22:39:31;8.15;;;3.53;;
25359;SDS011;13311;51.386;0.016;2022-09-28T22:44:32;7.45;;;3.72;;
25359;SDS011;13311;51.386;0.016;2022-09-28T22:49:34;5.70;;;3.38;;
25359;SDS011;13311;51.386;0.016;2022-09-28T22:54:35;7.47;;;3.90;;
25359;SDS011;13311;51.386;0.016;2022-09-28T22:59:37;6.10;;;3.58;;
25359;SDS011;13311;51.386;0.016;2022-09-28T23:04:38;5.82;;;3.53;;
25359;SDS011;13311;51.386;0.016;2022-09-28T23:09:39;4.53;;;3.47;;
25359;SDS011;13311;51.386;0.016;2022-09-28T23:14:40;5.32;;;3.35;;
25359;SDS011;13311;51.386;0.016;2022-09-28T23:19:41;8.63;;;3.92;;
25359;SDS011;13311;51.386;0.016;2022-09-28T23:24:41;6.07;;;3.50;;
25359;SDS011;13311;51.386;0.016;2022-09-28T23:29:42;6.25;;;3.58;;
25359;SDS011;13311;51.386;0.016;2022-09-28T23:34:47;9.57;;;3.70;;
25359;SDS011;13311;51.386;0.016;2022-09-28T23:39:49;5.50;;;3.85;;
25359;SDS011;13311;51.386;0.016;2022-09-28T23:44:50;7.68;;;3.53;;
25359;SDS011;13311;51.386;0.016;2022-09-28T23:49:51;5.03;;;3.38;;
25359;SDS011;13311;51.386;0.016;2022-09-28T23:54:53;4.80;;;3.10;;
25359;SDS011;13311;51.386;0.016;2022-09-28T23:59:54;4.65;;;3.25;;
